Joggins, Canada
Current Conditions -  °F | °C
As of 10:00 PM on Monday 22 Dec 2014 (Local Time) from CYQM Reporting Station
Overcast Overcast  
Wind Chill: 25°   Ceiling: 3500
Heat Index: 25°   Visibility: 15mi
Dew Point: 21°   Wind: 3mph
Humidity: 86%   Direction: 130°SE
Pressure: 30.47"   Gusts: NA
Location:  45.7°N, 64.43°W
Report Text: CYQM 230200Z 13003KT 15SM OVC035 M04/M06 A3047 RMK SC8 SLP321
Loading
Personal Weather Stations






























Interactive Weather Map New forecast layout! Learn more

10-Day Weather Forecast

Advertisements
Track Severe Weather on mobile